Time;durP1;ratioP1;P1;durP2;ratioP2;P2;SDS_P1;SDS_P2;PMS_P1;PMS_P2;Temp;Humidity;BMP_temperature;BMP_pressure;BME280_temperature;BME280_humidity;BME280_pressure;Samples;Min_cycle;Max_cycle;Signal;HPM_P1;HPM_P2
2021/01/16 00:02:32;;;;;;;7.83;6.37;;;0.00;79.70;;;;;;6263488;28;20471;-60
2021/01/16 00:05:35;;;;;;;7.07;6.40;;;0.10;79.90;;;;;;6251066;28;20525;-60
2021/01/16 00:08:38;;;;;;;9.90;7.13;;;0.00;79.40;;;;;;6257014;28;20475;-60
2021/01/16 00:11:40;;;;;;;9.03;5.83;;;0.00;79.80;;;;;;6275122;28;20541;-59
2021/01/16 00:14:43;;;;;;;7.27;6.10;;;0.10;79.50;;;;;;6275226;28;21051;-59
2021/01/16 00:17:46;;;;;;;7.30;5.67;;;0.10;79.90;;;;;;6275503;28;20578;-59
2021/01/16 00:20:50;;;;;;;10.90;6.73;;;0.00;79.80;;;;;;6275732;28;20431;-60
2021/01/16 00:23:52;;;;;;;5.80;5.30;;;0.00;80.10;;;;;;6275323;28;20443;-60
2021/01/16 00:26:54;;;;;;;11.33;6.07;;;-0.10;80.50;;;;;;6275361;28;20438;-60
2021/01/16 00:29:57;;;;;;;7.67;6.73;;;-0.10;80.60;;;;;;6275285;28;20988;-60
2021/01/16 00:33:00;;;;;;;12.13;6.83;;;-0.10;81.10;;;;;;6266436;28;20521;-60
2021/01/16 00:36:05;;;;;;;7.60;6.20;;;0.00;81.40;;;;;;6274917;28;20537;-60
2021/01/16 00:39:08;;;;;;;8.27;6.10;;;0.00;81.10;;;;;;6275260;28;20477;-60
2021/01/16 00:42:10;;;;;;;7.13;5.03;;;0.10;81.20;;;;;;6275185;28;20466;-60
2021/01/16 00:45:14;;;;;;;6.03;5.43;;;0.10;80.80;;;;;;6274853;28;20819;-60
2021/01/16 00:48:18;;;;;;;7.77;5.67;;;0.20;80.70;;;;;;6274440;28;20489;-60
2021/01/16 00:51:20;;;;;;;7.50;5.00;;;0.20;80.10;;;;;;6264097;28;20592;-60
2021/01/16 00:54:23;;;;;;;6.30;4.80;;;0.20;80.30;;;;;;6275022;28;20462;-60
2021/01/16 00:57:26;;;;;;;6.50;5.30;;;0.10;80.50;;;;;;6274692;28;20474;-60
2021/01/16 01:00:28;;;;;;;8.53;5.80;;;0.20;80.90;;;;;;6274804;28;20485;-60
2021/01/16 01:03:31;;;;;;;9.33;5.70;;;0.10;81.20;;;;;;6254800;28;20902;-60
2021/01/16 01:06:34;;;;;;;10.03;6.47;;;0.10;81.90;;;;;;6249419;28;20487;-60
2021/01/16 01:09:36;;;;;;;6.80;5.83;;;0.00;81.80;;;;;;6263779;28;20783;-60
2021/01/16 01:12:40;;;;;;;7.60;5.90;;;0.10;82.50;;;;;;6274626;28;20481;-60
2021/01/16 01:15:42;;;;;;;9.80;6.40;;;0.10;82.40;;;;;;6274828;28;20481;-60
2021/01/16 01:18:46;;;;;;;6.77;6.07;;;0.10;82.50;;;;;;6274222;28;20988;-60
2021/01/16 01:21:48;;;;;;;6.83;5.60;;;0.10;82.70;;;;;;6274278;28;20481;-58
2021/01/16 01:24:50;;;;;;;6.60;5.90;;;0.00;82.40;;;;;;6274233;28;20475;-59
2021/01/16 01:27:53;;;;;;;6.60;5.70;;;0.00;83.20;;;;;;6274290;28;20474;-58
2021/01/16 01:30:56;;;;;;;6.53;5.60;;;0.10;83.80;;;;;;6274557;28;20481;-59
2021/01/16 01:33:59;;;;;;;7.80;5.03;;;0.00;84.30;;;;;;6273709;28;20926;-58
2021/01/16 01:37:01;;;;;;;8.40;5.93;;;0.10;84.10;;;;;;6269992;28;20482;-58
2021/01/16 01:40:04;;;;;;;7.20;5.03;;;0.00;85.20;;;;;;6258538;28;20478;-58
2021/01/16 01:43:06;;;;;;;6.63;5.67;;;0.10;86.20;;;;;;6258658;28;20479;-58
2021/01/16 01:46:11;;;;;;;6.53;5.60;;;0.20;85.70;;;;;;6257535;28;20486;-58
2021/01/16 01:49:14;;;;;;;8.67;6.70;;;0.40;85.70;;;;;;6261158;28;20496;-59
2021/01/16 01:52:19;;;;;;;6.27;5.53;;;0.40;85.10;;;;;;6272259;28;20600;-60
2021/01/16 01:55:22;;;;;;;8.00;5.70;;;0.50;84.90;;;;;;6273737;28;20478;-60
2021/01/16 01:58:26;;;;;;;6.73;5.97;;;0.60;84.70;;;;;;6274037;28;20470;-59
2021/01/16 02:01:29;;;;;;;6.97;5.70;;;0.60;84.60;;;;;;6273610;28;20811;-59
2021/01/16 02:04:33;;;;;;;8.73;6.30;;;0.60;84.50;;;;;;6255048;28;20463;-59
2021/01/16 02:07:37;;;;;;;7.57;6.17;;;0.60;84.20;;;;;;6263906;28;20844;-59
2021/01/16 02:10:40;;;;;;;7.37;6.13;;;0.60;84.30;;;;;;6266819;28;20516;-60
2021/01/16 02:13:43;;;;;;;9.17;5.83;;;0.50;85.10;;;;;;6255090;28;20477;-60
2021/01/16 02:16:50;;;;;;;10.73;5.90;;;0.60;85.40;;;;;;6252830;28;20785;-60
2021/01/16 02:20:07;;;;;;;6.57;5.97;;;0.50;85.40;;;;;;6260888;28;20824;-60
2021/01/16 02:23:48;;;;;;;7.73;5.30;;;0.50;85.50;;;;;;6264198;28;20471;-60
2021/01/16 02:27:04;;;;;;;12.20;8.07;;;0.40;85.00;;;;;;6253796;28;20440;-60
2021/01/16 02:30:11;;;;;;;15.50;10.53;;;0.50;85.60;;;;;;6253462;28;20486;-60
2021/01/16 02:33:18;;;;;;;16.13;10.47;;;0.20;86.30;;;;;;6253596;28;20477;-60
2021/01/16 02:36:39;;;;;;;13.63;9.90;;;0.10;87.90;;;;;;6253334;28;20951;-60
2021/01/16 02:39:47;;;;;;;16.30;10.07;;;0.10;87.20;;;;;;6253494;28;20610;-60
2021/01/16 02:43:12;;;;;;;14.00;10.40;;;0.20;87.60;;;;;;6239513;28;20505;-61
2021/01/16 02:46:28;;;;;;;10.37;7.97;;;0.20;87.00;;;;;;6253260;28;20494;-60
2021/01/16 02:49:37;;;;;;;13.20;9.80;;;0.20;87.10;;;;;;6252991;28;20771;-60
2021/01/16 02:52:45;;;;;;;13.70;9.20;;;0.20;86.40;;;;;;6253122;28;20510;-60
2021/01/16 02:55:48;;;;;;;14.27;9.10;;;0.20;86.50;;;;;;6252793;28;20471;-60
2021/01/16 02:58:50;;;;;;;13.53;10.43;;;0.30;86.40;;;;;;6252804;28;20558;-60
2021/01/16 03:01:55;;;;;;;16.60;11.30;;;0.40;86.80;;;;;;6252691;28;20467;-60
2021/01/16 03:04:58;;;;;;;17.00;11.53;;;0.50;86.60;;;;;;6252687;28;20479;-60
2021/01/16 03:08:00;;;;;;;16.47;11.27;;;0.50;86.60;;;;;;6252608;28;20501;-60
2021/01/16 03:11:03;;;;;;;19.10;12.00;;;0.60;86.60;;;;;;6252764;28;20488;-60
2021/01/16 03:14:08;;;;;;;24.50;15.37;;;0.60;85.70;;;;;;6252453;28;20966;-60
2021/01/16 03:17:12;;;;;;;24.87;15.23;;;0.60;85.90;;;;;;6252382;28;20574;-60
2021/01/16 03:20:19;;;;;;;17.13;13.27;;;0.60;86.20;;;;;;6252633;28;20481;-60
2021/01/16 03:23:21;;;;;;;17.13;11.53;;;0.70;86.40;;;;;;6252352;28;20479;-60
2021/01/16 03:26:23;;;;;;;20.63;11.40;;;0.70;86.00;;;;;;6253826;28;20959;-60
2021/01/16 03:29:25;;;;;;;12.60;11.00;;;0.70;86.70;;;;;;6263465;28;20474;-60
2021/01/16 03:32:30;;;;;;;15.50;9.50;;;0.60;86.30;;;;;;6265352;28;20493;-60
2021/01/16 03:35:33;;;;;;;17.00;10.27;;;0.70;86.40;;;;;;6277051;28;20485;-60
2021/01/16 03:38:35;;;;;;;13.60;10.13;;;0.70;86.30;;;;;;6276448;28;20549;-60
2021/01/16 03:41:40;;;;;;;13.97;9.47;;;0.70;86.40;;;;;;6276547;28;20470;-60
2021/01/16 03:44:42;;;;;;;15.60;11.33;;;0.70;86.60;;;;;;6267176;28;20914;-60
2021/01/16 03:47:46;;;;;;;16.93;11.27;;;0.70;86.80;;;;;;6276050;28;20485;-60
2021/01/16 03:50:48;;;;;;;13.40;10.10;;;0.70;86.20;;;;;;6276657;28;20446;-60
2021/01/16 03:53:50;;;;;;;12.47;9.10;;;0.70;87.00;;;;;;6276501;28;20447;-60
2021/01/16 03:56:53;;;;;;;11.17;9.70;;;0.70;86.10;;;;;;6276469;28;20492;-60
2021/01/16 03:59:55;;;;;;;14.37;9.70;;;0.60;85.80;;;;;;6276282;28;20473;-60
2021/01/16 04:02:58;;;;;;;16.30;9.30;;;0.60;85.60;;;;;;6276247;28;20442;-60
2021/01/16 04:06:00;;;;;;;11.40;9.07;;;0.60;86.30;;;;;;6276298;28;20524;-60
2021/01/16 04:09:03;;;;;;;12.43;8.80;;;0.70;86.40;;;;;;6275761;28;20991;-60
2021/01/16 04:12:06;;;;;;;13.47;9.10;;;0.70;86.50;;;;;;6276060;28;20469;-60
2021/01/16 04:15:09;;;;;;;10.57;8.07;;;0.70;86.60;;;;;;6275750;28;20766;-60
2021/01/16 04:18:12;;;;;;;13.00;8.77;;;0.80;86.30;;;;;;6275803;28;20474;-60
2021/01/16 04:21:15;;;;;;;12.73;9.90;;;0.90;86.10;;;;;;6275570;28;20466;-60
2021/01/16 04:24:17;;;;;;;12.43;9.63;;;0.90;86.20;;;;;;6275823;28;20474;-60
2021/01/16 04:27:19;;;;;;;13.27;9.70;;;1.00;86.40;;;;;;6275295;28;20497;-60
2021/01/16 04:30:22;;;;;;;16.00;9.70;;;0.90;85.90;;;;;;6275582;28;20480;-60
2021/01/16 04:33:25;;;;;;;12.97;10.20;;;0.80;86.50;;;;;;6275255;28;20961;-60
2021/01/16 04:36:27;;;;;;;12.13;8.10;;;0.80;86.30;;;;;;6275086;28;21015;-60
2021/01/16 04:39:29;;;;;;;12.10;8.90;;;0.80;86.30;;;;;;6275411;28;20489;-56
2021/01/16 04:42:32;;;;;;;10.27;8.33;;;0.80;86.20;;;;;;6274459;28;20474;-60
2021/01/16 04:45:34;;;;;;;9.90;8.73;;;0.80;86.20;;;;;;6275263;28;20466;-60
2021/01/16 04:48:38;;;;;;;13.80;9.73;;;0.90;87.50;;;;;;6270571;28;20477;-60
2021/01/16 04:51:44;;;;;;;15.67;9.87;;;0.90;86.00;;;;;;6274902;28;20474;-60
2021/01/16 04:54:48;;;;;;;11.03;8.27;;;0.90;85.80;;;;;;6274873;28;20466;-60
2021/01/16 04:57:50;;;;;;;13.90;9.43;;;0.70;85.90;;;;;;6274551;28;20996;-62
2021/01/16 05:00:56;;;;;;;11.00;9.00;;;0.60;86.70;;;;;;6274996;28;20515;-56
2021/01/16 05:03:59;;;;;;;10.80;8.60;;;0.60;86.70;;;;;;6274905;28;20496;-63
2021/01/16 05:07:04;;;;;;;9.50;8.17;;;0.60;87.10;;;;;;6275354;28;20466;-63
2021/01/16 05:10:08;;;;;;;11.33;7.67;;;0.70;87.60;;;;;;6274559;28;20485;-63
2021/01/16 05:13:12;;;;;;;13.23;8.90;;;0.60;87.60;;;;;;6274643;28;20481;-57
2021/01/16 05:16:16;;;;;;;12.70;9.77;;;0.60;87.60;;;;;;6274495;28;20486;-57
2021/01/16 05:19:22;;;;;;;12.30;10.03;;;0.50;87.80;;;;;;6274756;28;20482;-57
2021/01/16 05:22:24;;;;;;;12.43;10.43;;;0.50;88.20;;;;;;6274546;28;20760;-61
2021/01/16 05:25:30;;;;;;;15.17;9.67;;;0.40;88.20;;;;;;6274872;28;21021;-60
2021/01/16 05:28:32;;;;;;;13.40;11.13;;;0.40;89.00;;;;;;6274320;28;20820;-60
2021/01/16 05:31:35;;;;;;;15.33;10.80;;;0.50;88.40;;;;;;6274514;28;20470;-60
2021/01/16 05:34:38;;;;;;;11.17;8.90;;;0.30;88.00;;;;;;6274553;28;20537;-63
2021/01/16 05:37:44;;;;;;;14.33;9.97;;;0.30;88.20;;;;;;6274336;28;20489;-63
2021/01/16 05:40:47;;;;;;;13.70;10.40;;;0.20;88.60;;;;;;6274257;28;20469;-63
2021/01/16 05:43:51;;;;;;;17.37;11.50;;;0.20;88.80;;;;;;6274210;28;20470;-64
2021/01/16 05:46:54;;;;;;;14.10;10.17;;;0.10;88.60;;;;;;6274174;28;20557;-57
2021/01/16 05:49:59;;;;;;;15.07;11.10;;;0.10;88.60;;;;;;6274195;28;20478;-57
2021/01/16 05:53:03;;;;;;;15.77;11.37;;;0.10;89.10;;;;;;6272322;28;20481;-57
2021/01/16 05:56:05;;;;;;;18.33;11.37;;;0.10;89.40;;;;;;6278992;28;20478;-57
2021/01/16 05:59:12;;;;;;;12.50;9.57;;;0.20;89.70;;;;;;6278657;28;20794;-57
2021/01/16 06:02:14;;;;;;;21.77;12.13;;;0.20;89.60;;;;;;6278754;28;20470;-58
2021/01/16 06:05:23;;;;;;;13.97;10.53;;;0.30;90.10;;;;;;6278833;28;20891;-57
2021/01/16 06:08:25;;;;;;;15.03;10.30;;;0.30;89.50;;;;;;6278599;28;20467;-57
2021/01/16 06:11:27;;;;;;;15.50;11.30;;;0.40;89.70;;;;;;6278563;28;20988;-57
2021/01/16 06:14:40;;;;;;;12.90;10.93;;;0.40;89.50;;;;;;6278632;28;20478;-63
2021/01/16 06:17:46;;;;;;;15.63;11.03;;;0.50;89.20;;;;;;6278309;28;20479;-60
2021/01/16 06:20:55;;;;;;;14.10;10.57;;;0.40;89.10;;;;;;6278409;28;20859;-60
2021/01/16 06:23:58;;;;;;;14.03;9.97;;;0.50;89.00;;;;;;6278842;28;20423;-57
2021/01/16 06:27:01;;;;;;;14.13;10.70;;;0.50;89.10;;;;;;6278648;28;20438;-61
2021/01/16 06:30:05;;;;;;;11.30;10.10;;;0.50;89.10;;;;;;6278406;28;20481;-60
2021/01/16 06:33:21;;;;;;;10.00;8.63;;;0.40;89.30;;;;;;6278776;28;20462;-60
2021/01/16 06:36:27;;;;;;;13.27;9.13;;;0.50;89.90;;;;;;6278384;28;20484;-60
2021/01/16 06:39:35;;;;;;;12.57;9.03;;;0.60;90.20;;;;;;6278187;28;20531;-60
2021/01/16 06:42:38;;;;;;;24.33;10.70;;;0.60;89.80;;;;;;6278212;28;20466;-60
2021/01/16 06:46:07;;;;;;;11.50;9.67;;;0.60;89.90;;;;;;6278257;28;20474;-60
2021/01/16 06:49:19;;;;;;;12.40;9.10;;;0.60;89.80;;;;;;6278241;28;20471;-60
2021/01/16 06:52:32;;;;;;;14.63;9.80;;;0.60;89.80;;;;;;6278277;28;20489;-60
2021/01/16 06:55:37;;;;;;;10.33;9.33;;;0.60;89.60;;;;;;6277994;28;20466;-60
2021/01/16 06:58:41;;;;;;;11.67;10.10;;;0.60;89.40;;;;;;6277363;28;20631;-60
2021/01/16 07:01:49;;;;;;;14.70;9.13;;;0.60;89.50;;;;;;6277516;28;20662;-61
2021/01/16 07:04:53;;;;;;;13.37;9.17;;;0.60;89.40;;;;;;6276922;28;20528;-60
2021/01/16 07:07:59;;;;;;;13.40;10.80;;;0.50;89.50;;;;;;6277446;28;20466;-61
2021/01/16 07:11:02;;;;;;;16.63;8.63;;;0.50;88.90;;;;;;6277315;28;20470;-60
2021/01/16 07:14:04;;;;;;;12.20;10.80;;;0.50;88.70;;;;;;6277193;28;20490;-60
2021/01/16 07:17:07;;;;;;;13.60;11.53;;;0.40;88.70;;;;;;6277005;28;20501;-60
2021/01/16 07:20:10;;;;;;;11.30;10.13;;;0.50;88.60;;;;;;6277228;28;20849;-60
2021/01/16 07:23:14;;;;;;;11.67;9.60;;;0.50;88.20;;;;;;6276872;28;20471;-61
2021/01/16 07:26:19;;;;;;;12.73;9.37;;;0.50;88.10;;;;;;6276924;28;20470;-61
2021/01/16 07:29:23;;;;;;;17.10;11.00;;;0.60;88.50;;;;;;6276386;28;20970;-61
2021/01/16 07:32:37;;;;;;;12.80;10.57;;;0.60;87.90;;;;;;6276832;28;20474;-61
2021/01/16 07:35:47;;;;;;;13.10;11.07;;;0.80;88.10;;;;;;6276578;28;20478;-60
2021/01/16 07:38:53;;;;;;;12.40;8.80;;;1.00;87.10;;;;;;6276054;28;20572;-60
2021/01/16 07:42:01;;;;;;;17.63;12.53;;;1.10;87.00;;;;;;6276602;28;20430;-61
2021/01/16 07:45:09;;;;;;;15.50;11.47;;;1.10;86.40;;;;;;6276373;28;20950;-60
2021/01/16 07:48:20;;;;;;;16.07;10.17;;;1.20;85.80;;;;;;6276173;28;20467;-60
2021/01/16 07:51:30;;;;;;;15.67;11.50;;;1.30;85.50;;;;;;6276726;28;20485;-60
2021/01/16 07:54:37;;;;;;;14.10;12.17;;;1.20;86.00;;;;;;6276241;28;20488;-60
2021/01/16 07:57:48;;;;;;;18.37;11.20;;;1.40;86.00;;;;;;6276459;28;20466;-61
2021/01/16 08:00:59;;;;;;;14.93;9.53;;;1.40;85.40;;;;;;6267170;28;20945;-60
2021/01/16 08:04:24;;;;;;;20.30;11.27;;;1.40;84.80;;;;;;6276466;28;20485;-60
2021/01/16 08:07:48;;;;;;;15.90;11.50;;;1.50;84.70;;;;;;6275923;28;20989;-63
2021/01/16 08:10:55;;;;;;;26.50;12.00;;;1.60;84.80;;;;;;6276080;28;20489;-61
2021/01/16 08:13:59;;;;;;;17.90;12.90;;;1.70;84.50;;;;;;6276018;28;20561;-60
2021/01/16 08:17:05;;;;;;;20.60;13.90;;;1.70;83.60;;;;;;6275610;28;20474;-60
2021/01/16 08:20:15;;;;;;;22.27;16.77;;;1.70;83.70;;;;;;6275637;28;20470;-60
2021/01/16 08:23:25;;;;;;;16.10;12.07;;;1.80;82.90;;;;;;6275538;28;20620;-60
2021/01/16 08:26:28;;;;;;;13.50;11.20;;;1.80;82.40;;;;;;6275391;28;20483;-60
2021/01/16 08:29:32;;;;;;;13.17;11.70;;;1.80;82.90;;;;;;6275235;28;20484;-60
2021/01/16 08:32:52;;;;;;;12.10;9.63;;;2.00;83.10;;;;;;6275368;28;20475;-60
2021/01/16 08:35:55;;;;;;;10.80;8.47;;;2.20;83.20;;;;;;6275461;28;20427;-60
2021/01/16 08:39:25;;;;;;;13.90;9.90;;;2.30;82.40;;;;;;6275848;28;20478;-60
2021/01/16 08:42:28;;;;;;;13.70;10.47;;;2.50;82.30;;;;;;6263649;28;20467;-60
2021/01/16 08:45:31;;;;;;;11.40;9.00;;;2.60;82.80;;;;;;6261695;28;20815;-60
2021/01/16 08:48:33;;;;;;;11.87;9.40;;;2.80;82.20;;;;;;6263060;28;20812;-60
2021/01/16 08:51:37;;;;;;;10.23;8.53;;;2.90;81.20;;;;;;6261117;28;20475;-60
2021/01/16 08:54:59;;;;;;;11.53;9.30;;;3.00;81.70;;;;;;6262777;28;20524;-60
2021/01/16 08:58:10;;;;;;;9.23;7.90;;;3.20;82.00;;;;;;6261449;28;20481;-61
2021/01/16 09:01:12;;;;;;;11.47;8.10;;;3.30;81.60;;;;;;6260888;28;20466;-60
2021/01/16 09:04:22;;;;;;;8.33;7.00;;;3.40;81.90;;;;;;6253814;28;20603;-60
2021/01/16 09:07:25;;;;;;;11.63;8.60;;;3.40;81.80;;;;;;6262859;28;20473;-60
2021/01/16 09:10:31;;;;;;;9.47;8.30;;;3.20;83.50;;;;;;6262932;28;20547;-60
2021/01/16 09:13:40;;;;;;;10.73;7.87;;;3.20;83.30;;;;;;6263149;28;20479;-60
2021/01/16 09:16:43;;;;;;;11.27;8.50;;;3.20;83.30;;;;;;6263300;28;20471;-60
2021/01/16 09:19:55;;;;;;;15.80;8.43;;;2.90;84.30;;;;;;6260407;28;20477;-60
2021/01/16 09:22:57;;;;;;;10.30;7.80;;;2.90;84.80;;;;;;6260755;28;20464;-60
2021/01/16 09:26:09;;;;;;;9.77;8.77;;;3.00;84.10;;;;;;6262327;28;20511;-60
2021/01/16 09:29:27;;;;;;;10.23;8.50;;;3.10;84.10;;;;;;6264433;28;20475;-60
2021/01/16 09:32:32;;;;;;;14.10;8.50;;;3.10;83.20;;;;;;6264104;28;20477;-61
2021/01/16 09:35:36;;;;;;;10.10;8.60;;;3.20;84.30;;;;;;6265407;28;20470;-60
2021/01/16 09:38:39;;;;;;;9.27;8.30;;;3.30;83.60;;;;;;6261726;28;20481;-60
2021/01/16 09:41:41;;;;;;;9.17;8.27;;;3.30;83.40;;;;;;6258655;28;20922;-61
2021/01/16 09:44:55;;;;;;;9.50;8.50;;;3.30;83.40;;;;;;6254356;28;20459;-60
2021/01/16 09:47:57;;;;;;;10.70;8.90;;;3.40;82.80;;;;;;6254120;28;20962;-60
2021/01/16 09:51:01;;;;;;;11.90;9.50;;;3.60;82.00;;;;;;6254419;28;20454;-60
2021/01/16 09:54:13;;;;;;;14.67;8.73;;;3.60;82.00;;;;;;6254368;28;20568;-60
2021/01/16 09:57:33;;;;;;;9.33;8.40;;;3.70;82.10;;;;;;6254454;28;20490;-60
2021/01/16 10:00:39;;;;;;;9.83;8.83;;;3.90;81.40;;;;;;6254891;28;20476;-60
2021/01/16 10:03:42;;;;;;;11.03;7.73;;;3.50;82.30;;;;;;6270334;28;20475;-60
2021/01/16 10:06:46;;;;;;;7.90;7.10;;;3.20;84.30;;;;;;6269534;28;20909;-61
2021/01/16 10:09:50;;;;;;;9.33;8.47;;;3.30;87.30;;;;;;6253271;28;20474;-62
2021/01/16 10:12:59;;;;;;;9.77;8.77;;;3.50;85.60;;;;;;6269831;28;21029;-60
2021/01/16 10:16:04;;;;;;;9.87;7.87;;;3.70;84.60;;;;;;6262861;28;20467;-60
2021/01/16 10:19:11;;;;;;;9.93;8.43;;;3.60;82.30;;;;;;6271509;28;20838;-61
2021/01/16 10:22:15;;;;;;;16.03;9.07;;;3.40;83.00;;;;;;6253325;28;20970;-60
2021/01/16 10:25:17;;;;;;;11.37;7.60;;;3.50;82.90;;;;;;6253347;28;20470;-60
2021/01/16 10:28:26;;;;;;;9.17;8.20;;;3.40;83.10;;;;;;6253388;28;20471;-60
2021/01/16 10:31:29;;;;;;;8.93;8.03;;;3.40;82.50;;;;;;6253353;28;20997;-60
2021/01/16 10:34:34;;;;;;;10.10;9.17;;;3.20;82.60;;;;;;6253155;28;20471;-60
2021/01/16 10:37:40;;;;;;;9.23;8.20;;;3.10;83.10;;;;;;6253388;28;20479;-64
2021/01/16 10:40:50;;;;;;;10.77;8.97;;;3.00;83.70;;;;;;6253180;28;20474;-60
2021/01/16 10:43:59;;;;;;;11.10;9.53;;;3.10;84.20;;;;;;6252870;28;20763;-60
2021/01/16 10:47:13;;;;;;;10.87;8.73;;;3.10;84.60;;;;;;6252209;28;20479;-61
2021/01/16 10:50:17;;;;;;;10.20;8.63;;;3.20;84.00;;;;;;6252998;28;20959;-60
2021/01/16 10:53:35;;;;;;;10.67;7.63;;;3.50;83.60;;;;;;6252782;28;20483;-61
2021/01/16 10:56:37;;;;;;;9.93;7.63;;;3.70;82.20;;;;;;6252533;28;20475;-60
2021/01/16 10:59:54;;;;;;;9.70;7.83;;;3.90;81.10;;;;;;6251975;28;20489;-67
2021/01/16 11:47:55;;;;;;;9.70;7.03;;;15.20;37.70;;;;;;6300878;28;20411;-65
2021/01/16 11:56:09;;;;;;;10.10;8.27;;;14.60;36.60;;;;;;6283066;28;20458;-65
2021/01/16 12:17:20;;;;;;;5.77;5.23;;;9.90;42.40;;;;;;6084019;28;20620;-66
2021/01/16 12:24:27;;;;;;;7.93;4.93;;;12.90;40.00;;;;;;6235359;28;20588;-65
2021/01/16 12:32:18;;;;;;;4.30;4.00;;;16.50;31.80;;;;;;6094096;29;20489;-66
2021/01/16 12:57:06;;;;;;;15.10;5.10;;;19.40;25.60;;;;;;6164036;28;20407;-66
2021/01/16 13:15:40;;;;;;;9.67;4.30;;;13.30;28.30;;;;;;6207407;28;20762;-65
2021/01/16 13:18:49;;;;;;;6.00;4.17;;;12.30;29.70;;;;;;6239890;28;20594;-65
2021/01/16 13:21:53;;;;;;;8.27;5.87;;;11.40;29.90;;;;;;6243539;28;20833;-65
2021/01/16 13:25:11;;;;;;;10.90;6.50;;;10.40;33.60;;;;;;6235386;28;20821;-65
2021/01/16 13:29:03;;;;;;;;;;;;;;;;;;;;;
2021/01/16 15:09:36;;;;;;;7.63;6.77;;;4.10;56.00;;;;;;5983620;29;20485;-55
2021/01/16 15:12:41;;;;;;;9.37;7.20;;;4.10;54.30;;;;;;6049182;29;20620;-55
2021/01/16 15:15:47;;;;;;;10.60;7.83;;;4.10;54.40;;;;;;6123072;29;20833;-55
2021/01/16 15:18:49;;;;;;;12.33;9.00;;;4.00;54.20;;;;;;6122234;29;20991;-56
2021/01/16 15:21:51;;;;;;;10.13;8.80;;;4.00;54.80;;;;;;6122326;29;20625;-55
2021/01/16 15:24:54;;;;;;;17.90;8.50;;;3.90;55.20;;;;;;6122973;28;20474;-55
2021/01/16 15:27:56;;;;;;;18.23;8.40;;;3.80;55.40;;;;;;6190771;28;20822;-55
2021/01/16 15:31:04;;;;;;;13.50;9.07;;;3.60;55.60;;;;;;6201477;28;20992;-55
2021/01/16 15:34:07;;;;;;;10.40;9.37;;;3.70;56.10;;;;;;6201590;28;20492;-56
2021/01/16 15:37:09;;;;;;;5.23;3.50;;;3.70;54.00;;;;;;6201617;28;20505;-55
2021/01/16 15:40:14;;;;;;;3.70;3.27;;;3.50;50.40;;;;;;6201342;28;20487;-55
2021/01/16 15:43:16;;;;;;;7.97;3.50;;;3.30;49.50;;;;;;6199981;28;20993;-55
2021/01/16 15:46:18;;;;;;;7.20;3.10;;;3.20;50.00;;;;;;6201073;28;20968;-55
2021/01/16 15:49:28;;;;;;;3.30;3.00;;;3.30;50.20;;;;;;6200936;28;20518;-55
2021/01/16 15:52:31;;;;;;;3.80;2.47;;;3.50;48.90;;;;;;6201122;28;20518;-54
2021/01/16 15:55:35;;;;;;;3.70;3.03;;;3.50;48.20;;;;;;6201236;28;20469;-54
2021/01/16 15:58:37;;;;;;;4.63;3.07;;;3.40;48.20;;;;;;6201407;28;20469;-55
2021/01/16 16:01:40;;;;;;;4.23;3.07;;;3.50;48.70;;;;;;6201350;28;20468;-54
2021/01/16 16:04:45;;;;;;;6.77;4.77;;;3.50;48.90;;;;;;6201035;28;20818;-55
2021/01/16 16:07:47;;;;;;;8.87;5.77;;;3.40;48.80;;;;;;6200898;28;20477;-55
2021/01/16 16:10:58;;;;;;;6.43;4.47;;;3.40;48.90;;;;;;6201054;28;20480;-55
2021/01/16 16:14:00;;;;;;;6.00;3.93;;;3.30;48.80;;;;;;6200782;28;20540;-58
2021/01/16 16:17:02;;;;;;;4.03;3.60;;;3.20;49.20;;;;;;6201111;28;20469;-55
2021/01/16 16:20:06;;;;;;;7.60;3.50;;;3.20;49.50;;;;;;6201002;28;20477;-55
2021/01/16 16:23:08;;;;;;;8.57;4.07;;;3.20;50.20;;;;;;6201047;28;20476;-56
2021/01/16 16:26:12;;;;;;;3.33;3.03;;;3.30;50.30;;;;;;6200759;28;20556;-56
2021/01/16 16:29:17;;;;;;;6.50;4.77;;;3.30;50.00;;;;;;6200268;28;20692;-56
2021/01/16 16:32:19;;;;;;;8.40;6.80;;;3.40;49.90;;;;;;6192081;28;20481;-56
2021/01/16 16:35:21;;;;;;;8.23;5.33;;;3.40;51.40;;;;;;6200369;28;20484;-56
2021/01/16 16:38:24;;;;;;;6.40;4.57;;;3.30;52.60;;;;;;6200055;28;20477;-54
2021/01/16 16:41:28;;;;;;;9.40;8.23;;;3.30;51.70;;;;;;6197799;28;20473;-55
2021/01/16 16:44:30;;;;;;;11.60;10.33;;;3.30;53.50;;;;;;6199732;28;20583;-58
2021/01/16 16:47:33;;;;;;;16.57;10.20;;;3.20;56.70;;;;;;6200430;28;20483;-58
2021/01/16 16:50:36;;;;;;;13.23;10.37;;;3.20;58.20;;;;;;6200309;28;20823;-58
2021/01/16 16:53:38;;;;;;;12.10;9.90;;;3.20;60.70;;;;;;6200369;28;20477;-58
2021/01/16 16:56:41;;;;;;;11.50;10.30;;;3.20;62.10;;;;;;6199434;28;20474;-58
2021/01/16 16:59:43;;;;;;;11.93;10.10;;;3.00;64.20;;;;;;6200267;28;20500;-58
2021/01/16 17:02:46;;;;;;;15.97;10.63;;;3.00;65.60;;;;;;6200050;28;20479;-58
2021/01/16 17:05:48;;;;;;;13.73;11.37;;;2.90;67.10;;;;;;6200011;28;20853;-58
2021/01/16 17:08:51;;;;;;;17.90;12.40;;;2.80;68.20;;;;;;6199174;28;20485;-58
2021/01/16 17:11:56;;;;;;;16.70;13.17;;;2.80;69.30;;;;;;6200606;28;20441;-58
2021/01/16 17:14:58;;;;;;;17.10;13.40;;;2.70;70.60;;;;;;6199914;28;20901;-58
2021/01/16 17:18:02;;;;;;;17.20;11.63;;;2.70;71.70;;;;;;6200318;28;20471;-58
2021/01/16 17:21:05;;;;;;;18.47;13.40;;;2.50;73.40;;;;;;6199999;28;20441;-58
2021/01/16 17:24:08;;;;;;;14.40;11.70;;;2.30;75.30;;;;;;6200249;28;20460;-56
2021/01/16 17:27:13;;;;;;;14.50;12.27;;;2.10;77.10;;;;;;6204821;28;20456;-57
2021/01/16 17:30:20;;;;;;;19.13;12.90;;;2.10;78.10;;;;;;6204606;28;20799;-57
2021/01/16 17:33:22;;;;;;;14.93;12.87;;;2.10;78.70;;;;;;6198942;28;20484;-57
2021/01/16 17:36:24;;;;;;;21.10;14.07;;;2.20;79.50;;;;;;6202069;28;20468;-57
2021/01/16 17:39:26;;;;;;;18.63;12.70;;;2.20;79.90;;;;;;6202239;28;20476;-57
2021/01/16 17:42:35;;;;;;;21.80;13.50;;;2.20;80.50;;;;;;6225533;28;21001;-57
2021/01/16 17:45:38;;;;;;;16.80;12.17;;;2.20;80.90;;;;;;6227311;28;20468;-57
2021/01/16 17:48:41;;;;;;;15.20;12.33;;;2.10;81.90;;;;;;6227090;28;20480;-57
2021/01/16 17:51:44;;;;;;;15.00;12.13;;;2.10;82.50;;;;;;6214983;28;20819;-57
2021/01/16 17:54:46;;;;;;;14.10;12.23;;;2.00;82.80;;;;;;6203155;28;20492;-57
2021/01/16 17:57:50;;;;;;;12.97;10.50;;;2.00;83.20;;;;;;6204380;28;21088;-57
2021/01/16 18:00:52;;;;;;;14.23;11.50;;;2.00;84.40;;;;;;6203653;28;21010;-57
2021/01/16 18:03:55;;;;;;;17.50;12.20;;;2.10;83.70;;;;;;6204398;28;21019;-57
2021/01/16 18:06:57;;;;;;;17.80;14.00;;;2.00;83.90;;;;;;6203867;28;20473;-57
2021/01/16 18:10:00;;;;;;;12.70;11.33;;;2.00;84.40;;;;;;6203940;28;20477;-57
2021/01/16 18:13:03;;;;;;;14.33;10.93;;;2.00;84.20;;;;;;6203581;28;20814;-57
2021/01/16 18:16:09;;;;;;;16.80;12.70;;;2.00;84.40;;;;;;6203542;28;20477;-57
2021/01/16 18:19:12;;;;;;;14.17;11.83;;;2.10;84.50;;;;;;6203095;28;20485;-57
2021/01/16 18:22:16;;;;;;;14.43;12.63;;;2.10;84.50;;;;;;6203957;28;20957;-58
2021/01/16 18:25:18;;;;;;;21.97;17.03;;;2.10;85.10;;;;;;6203113;28;20968;-57
2021/01/16 18:28:23;;;;;;;18.60;16.17;;;2.00;84.70;;;;;;6203292;28;20549;-57
2021/01/16 18:31:32;;;;;;;16.83;14.23;;;2.10;84.50;;;;;;6202783;28;20472;-58
2021/01/16 18:34:37;;;;;;;17.97;13.67;;;2.10;84.90;;;;;;6208882;28;20578;-57
2021/01/16 18:37:40;;;;;;;18.00;13.60;;;2.10;85.10;;;;;;6227247;28;20499;-57
2021/01/16 18:40:44;;;;;;;20.57;15.07;;;2.10;84.90;;;;;;6222510;28;20494;-57
2021/01/16 18:43:48;;;;;;;20.80;15.23;;;2.10;85.00;;;;;;6227272;28;20525;-57
2021/01/16 18:46:51;;;;;;;22.87;14.00;;;2.10;85.30;;;;;;6227367;28;20472;-58
2021/01/16 18:49:54;;;;;;;23.70;14.90;;;2.00;85.40;;;;;;6227406;28;20484;-56
2021/01/16 18:52:56;;;;;;;19.30;15.17;;;2.00;85.30;;;;;;6227066;28;20476;-58
2021/01/16 18:56:19;;;;;;;19.53;15.90;;;2.10;85.90;;;;;;6226820;28;20477;-58
2021/01/16 18:59:23;;;;;;;22.73;16.93;;;2.00;86.00;;;;;;6226779;28;20818;-58
2021/01/16 19:02:25;;;;;;;17.77;15.03;;;2.00;86.30;;;;;;6226863;28;20972;-57
2021/01/16 19:05:27;;;;;;;19.40;14.30;;;2.10;86.90;;;;;;6226704;28;20995;-57
2021/01/16 19:08:30;;;;;;;20.60;15.07;;;2.00;86.80;;;;;;6226052;28;20484;-57
2021/01/16 19:11:35;;;;;;;26.10;21.83;;;1.90;86.90;;;;;;6226781;28;20499;-57
2021/01/16 19:14:38;;;;;;;21.53;14.70;;;1.90;87.40;;;;;;6226556;28;20482;-57
2021/01/16 19:17:40;;;;;;;20.10;13.40;;;1.90;87.40;;;;;;6226598;28;20531;-57
2021/01/16 19:20:45;;;;;;;22.83;14.20;;;1.90;87.30;;;;;;6226201;28;20476;-57
2021/01/16 19:23:49;;;;;;;18.20;13.87;;;1.80;87.20;;;;;;6226084;28;20619;-57
2021/01/16 19:26:54;;;;;;;22.10;16.30;;;1.80;87.40;;;;;;6226119;28;20531;-57
2021/01/16 19:29:58;;;;;;;21.43;16.00;;;1.70;87.80;;;;;;6226598;28;20480;-57
2021/01/16 19:33:01;;;;;;;19.03;14.57;;;1.50;89.20;;;;;;6226230;28;20503;-59
2021/01/16 19:36:04;;;;;;;26.50;14.63;;;1.40;90.20;;;;;;6225933;28;20943;-59